Time,TemperatureF,DewpointF,PressureIn,WindDirection,WindDirectionDegrees,WindSpeedMPH,WindSpeedGustMPH,Humidity,HourlyPrecipIn,Conditions,Clouds,dailyrainin,SoftwareType,DateUTC
2013-08-10 00:01:00,80.0,75.8,30.02,South,185,5.0,5.0,87,0.00,,,0.00,WeatherCatV1.15B25,2013-08-10 05:01:00,
2013-08-10 00:06:00,79.9,75.7,30.02,South,185,3.0,4.0,87,0.00,,,0.00,WeatherCatV1.15B25,2013-08-10 05:06:00,
2013-08-10 00:11:00,79.7,75.5,30.02,South,184,2.0,5.0,87,0.00,,,0.00,WeatherCatV1.15B25,2013-08-10 05:11:00,
2013-08-10 00:16:00,79.7,75.5,30.02,South,177,1.0,3.0,87,0.00,,,0.00,WeatherCatV1.15B25,2013-08-10 05:16:00,
2013-08-10 00:21:00,79.6,75.4,30.02,South,177,0.0,1.0,87,0.00,,,0.00,WeatherCatV1.15B25,2013-08-10 05:21:00,
2013-08-10 00:26:00,79.5,75.3,30.03,South,177,1.0,1.0,87,0.00,,,0.00,WeatherCatV1.15B25,2013-08-10 05:26:00,
2013-08-10 00:31:00,79.4,75.5,30.03,South,185,3.0,5.0,88,0.00,,,0.00,WeatherCatV1.15B25,2013-08-10 05:31:00,
2013-08-10 00:36:00,79.3,75.4,30.02,South,179,2.0,3.0,88,0.00,,,0.00,WeatherCatV1.15B25,2013-08-10 05:36:00,
2013-08-10 00:41:00,79.2,75.3,30.02,South,180,3.0,5.0,88,0.00,,,0.00,WeatherCatV1.15B25,2013-08-10 05:41:00,
2013-08-10 00:46:00,79.2,75.3,30.02,South,180,1.0,5.0,88,0.00,,,0.00,WeatherCatV1.15B25,2013-08-10 05:46:00,
2013-08-10 00:51:00,79.1,75.2,30.02,South,184,3.0,6.0,88,0.00,,,0.00,WeatherCatV1.15B25,2013-08-10 05:51:00,
2013-08-10 00:56:00,79.0,75.5,30.02,SSW,192,4.0,4.0,89,0.00,,,0.00,WeatherCatV1.15B25,2013-08-10 05:56:00,
2013-08-10 01:01:00,78.7,75.2,30.02,SSW,192,3.0,4.0,89,0.00,,,0.00,WeatherCatV1.15B25,2013-08-10 06:01:00,
2013-08-10 01:06:00,78.6,75.1,30.02,South,169,2.0,4.0,89,0.00,,,0.00,WeatherCatV1.15B25,2013-08-10 06:06:00,
2013-08-10 01:11:00,78.6,75.1,30.02,South,174,1.0,4.0,89,0.00,,,0.00,WeatherCatV1.15B25,2013-08-10 06:11:00,
2013-08-10 01:16:00,78.5,75.0,30.02,South,175,2.0,4.0,89,0.00,,,0.00,WeatherCatV1.15B25,2013-08-10 06:16:00,
2013-08-10 01:21:00,78.4,74.9,30.02,South,175,3.0,3.0,89,0.00,,,0.00,WeatherCatV1.15B25,2013-08-10 06:21:00,
2013-08-10 01:26:00,78.4,74.9,30.02,South,176,2.0,3.0,89,0.00,,,0.00,WeatherCatV1.15B25,2013-08-10 06:26:00,
2013-08-10 01:31:00,78.4,74.9,30.02,South,190,1.0,5.0,89,0.00,,,0.00,WeatherCatV1.15B25,2013-08-10 06:31:00,
2013-08-10 01:36:00,78.4,74.9,30.02,South,181,2.0,3.0,89,0.00,,,0.00,WeatherCatV1.15B25,2013-08-10 06:36:00,
2013-08-10 01:41:00,78.3,74.8,30.02,South,184,1.0,4.0,89,0.00,,,0.00,WeatherCatV1.15B25,2013-08-10 06:41:00,
2013-08-10 01:46:00,78.2,74.7,30.02,South,184,3.0,5.0,89,0.00,,,0.00,WeatherCatV1.15B25,2013-08-10 06:46:00,
2013-08-10 01:51:00,78.1,74.9,30.02,South,190,6.0,6.0,90,0.00,,,0.00,WeatherCatV1.15B25,2013-08-10 06:51:00,
2013-08-10 01:56:00,78.0,74.8,30.02,SSW,200,5.0,5.0,90,0.00,,,0.00,WeatherCatV1.15B25,2013-08-10 06:56:00,
2013-08-10 02:01:00,77.8,74.6,30.02,South,189,4.0,6.0,90,0.00,,,0.00,WeatherCatV1.15B25,2013-08-10 07:01:00,
2013-08-10 02:06:00,77.8,75.0,30.02,South,188,4.0,5.0,91,0.00,,,0.00,WeatherCatV1.15B25,2013-08-10 07:06:00,
2013-08-10 02:11:00,77.7,74.9,30.02,South,184,4.0,5.0,91,0.00,,,0.00,WeatherCatV1.15B25,2013-08-10 07:11:00,
2013-08-10 02:16:00,77.6,74.8,30.02,South,184,3.0,4.0,91,0.00,,,0.00,WeatherCatV1.15B25,2013-08-10 07:16:00,
2013-08-10 02:21:00,77.5,74.7,30.02,South,186,3.0,4.0,91,0.00,,,0.00,WeatherCatV1.15B25,2013-08-10 07:21:00,
2013-08-10 02:26:00,77.5,74.3,30.02,South,186,1.0,3.0,90,0.00,,,0.00,WeatherCatV1.15B25,2013-08-10 07:26:00,
2013-08-10 02:31:00,77.4,74.6,30.02,South,186,2.0,4.0,91,0.00,,,0.00,WeatherCatV1.15B25,2013-08-10 07:31:00,
2013-08-10 02:36:00,77.3,74.5,30.02,South,186,2.0,4.0,91,0.00,,,0.00,WeatherCatV1.15B25,2013-08-10 07:36:00,
2013-08-10 02:41:00,77.2,74.4,30.02,SSE,163,1.0,4.0,91,0.00,,,0.00,WeatherCatV1.15B25,2013-08-10 07:41:00,
2013-08-10 02:46:00,77.2,74.4,30.01,SSE,158,3.0,5.0,91,0.00,,,0.00,WeatherCatV1.15B25,2013-08-10 07:46:00,
2013-08-10 02:51:00,77.2,74.4,30.01,South,178,0.0,0.0,91,0.00,,,0.00,WeatherCatV1.15B25,2013-08-10 07:51:00,
2013-08-10 02:56:00,77.1,74.3,30.01,South,180,2.0,3.0,91,0.00,,,0.00,WeatherCatV1.15B25,2013-08-10 07:56:00,
2013-08-10 03:01:00,77.1,74.6,30.01,South,185,5.0,5.0,92,0.00,,,0.00,WeatherCatV1.15B25,2013-08-10 08:01:00,
2013-08-10 03:06:00,76.9,74.4,30.01,South,170,1.0,4.0,92,0.00,,,0.00,WeatherCatV1.15B25,2013-08-10 08:06:00,
2013-08-10 03:11:00,76.9,74.4,30.02,South,170,0.0,5.0,92,0.00,,,0.00,WeatherCatV1.15B25,2013-08-10 08:11:00,
2013-08-10 03:16:00,76.9,74.4,30.01,South,179,3.0,5.0,92,0.00,,,0.00,WeatherCatV1.15B25,2013-08-10 08:16:00,
2013-08-10 03:21:00,76.9,74.4,30.01,South,180,0.0,4.0,92,0.00,,,0.00,WeatherCatV1.15B25,2013-08-10 08:21:00,
2013-08-10 03:23:00,76.9,74.4,30.01,South,180,0.0,1.0,92,0.00,,,0.00,WeatherCatV1.15B25,2013-08-10 08:23:00,
2013-08-10 03:28:00,76.8,74.3,30.01,South,180,0.0,0.0,92,0.00,,,0.00,WeatherCatV1.15B25,2013-08-10 08:28:00,
2013-08-10 03:33:00,76.7,74.2,30.01,South,182,0.0,3.0,92,0.00,,,0.00,WeatherCatV1.15B25,2013-08-10 08:33:00,
2013-08-10 03:38:00,76.6,74.1,30.01,South,182,0.0,0.0,92,0.00,,,0.00,WeatherCatV1.15B25,2013-08-10 08:38:00,
2013-08-10 03:43:00,76.5,74.3,30.01,South,182,0.0,1.0,93,0.00,,,0.00,WeatherCatV1.15B25,2013-08-10 08:43:00,
2013-08-10 03:48:00,76.6,74.4,30.01,South,182,1.0,3.0,93,0.00,,,0.00,WeatherCatV1.15B25,2013-08-10 08:48:00,
2013-08-10 03:53:00,76.7,74.5,30.01,South,182,3.0,3.0,93,0.00,,,0.00,WeatherCatV1.15B25,2013-08-10 08:53:00,
2013-08-10 03:58:00,76.6,74.4,30.01,SSE,167,0.0,1.0,93,0.00,,,0.00,WeatherCatV1.15B25,2013-08-10 08:58:00,
2013-08-10 04:03:00,76.6,74.7,30.01,SSE,167,0.0,1.0,94,0.00,,,0.00,WeatherCatV1.15B25,2013-08-10 09:03:00,
2013-08-10 04:08:00,76.6,74.7,30.01,SSE,168,2.0,4.0,94,0.00,,,0.00,WeatherCatV1.15B25,2013-08-10 09:08:00,
2013-08-10 04:13:00,76.6,74.7,30.01,South,175,4.0,5.0,94,0.00,,,0.00,WeatherCatV1.15B25,2013-08-10 09:13:00,
2013-08-10 04:18:00,76.6,74.7,30.01,South,179,1.0,4.0,94,0.00,,,0.00,WeatherCatV1.15B25,2013-08-10 09:18:00,
2013-08-10 04:23:00,76.6,74.7,30.01,SSW,194,4.0,5.0,94,0.00,,,0.00,WeatherCatV1.15B25,2013-08-10 09:23:00,
2013-08-10 04:28:00,76.6,74.7,30.01,South,176,2.0,4.0,94,0.00,,,0.00,WeatherCatV1.15B25,2013-08-10 09:28:00,
2013-08-10 04:33:00,76.6,74.7,30.01,South,176,2.0,5.0,94,0.00,,,0.00,WeatherCatV1.15B25,2013-08-10 09:33:00,
2013-08-10 04:38:00,76.6,74.7,30.01,South,182,3.0,5.0,94,0.00,,,0.00,WeatherCatV1.15B25,2013-08-10 09:38:00,
2013-08-10 04:43:00,76.6,75.1,30.01,South,182,3.0,6.0,95,0.00,,,0.00,WeatherCatV1.15B25,2013-08-10 09:43:00,
2013-08-10 04:48:00,76.6,74.7,30.01,South,173,2.0,6.0,94,0.00,,,0.00,WeatherCatV1.15B25,2013-08-10 09:48:00,
2013-08-10 04:53:00,76.6,74.7,30.01,South,179,6.0,7.0,94,0.00,,,0.00,WeatherCatV1.15B25,2013-08-10 09:53:00,
2013-08-10 04:58:00,76.5,75.0,30.01,South,175,3.0,4.0,95,0.00,,,0.00,WeatherCatV1.15B25,2013-08-10 09:58:00,
2013-08-10 05:03:00,76.5,75.0,30.01,South,177,4.0,4.0,95,0.00,,,0.00,WeatherCatV1.15B25,2013-08-10 10:03:00,
2013-08-10 05:08:00,76.4,74.9,30.02,South,180,6.0,6.0,95,0.00,,,0.00,WeatherCatV1.15B25,2013-08-10 10:08:00,
2013-08-10 05:13:00,76.4,74.9,30.02,South,184,7.0,7.0,95,0.00,,,0.00,WeatherCatV1.15B25,2013-08-10 10:13:00,
2013-08-10 05:18:00,76.4,74.9,30.02,South,178,4.0,5.0,95,0.00,,,0.00,WeatherCatV1.15B25,2013-08-10 10:18:00,
2013-08-10 05:23:00,76.4,74.9,30.02,South,181,6.0,6.0,95,0.00,,,0.00,WeatherCatV1.15B25,2013-08-10 10:23:00,
2013-08-10 05:28:00,76.4,74.9,30.02,South,180,4.0,6.0,95,0.00,,,0.00,WeatherCatV1.15B25,2013-08-10 10:28:00,
2013-08-10 05:33:00,76.3,74.8,30.02,South,186,3.0,6.0,95,0.00,,,0.00,WeatherCatV1.15B25,2013-08-10 10:33:00,
2013-08-10 05:38:00,76.2,74.7,30.02,South,184,2.0,5.0,95,0.00,,,0.00,WeatherCatV1.15B25,2013-08-10 10:38:00,
2013-08-10 05:43:00,76.2,74.7,30.02,South,184,3.0,4.0,95,0.00,,,0.00,WeatherCatV1.15B25,2013-08-10 10:43:00,
2013-08-10 05:48:00,76.2,74.7,30.02,South,180,3.0,4.0,95,0.00,,,0.00,WeatherCatV1.15B25,2013-08-10 10:48:00,
2013-08-10 05:53:00,76.1,74.6,30.03,South,174,5.0,5.0,95,0.00,,,0.00,WeatherCatV1.15B25,2013-08-10 10:53:00,
2013-08-10 05:58:00,76.1,74.6,30.03,South,182,7.0,7.0,95,0.00,,,0.00,WeatherCatV1.15B25,2013-08-10 10:58:00,
2013-08-10 06:03:00,76.1,74.9,30.03,South,180,3.0,7.0,96,0.00,,,0.00,WeatherCatV1.15B25,2013-08-10 11:03:00,
2013-08-10 06:08:00,76.0,74.8,30.04,South,178,5.0,6.0,96,0.00,,,0.00,WeatherCatV1.15B25,2013-08-10 11:08:00,
2013-08-10 06:13:00,76.0,74.8,30.04,South,182,4.0,7.0,96,0.00,,,0.00,WeatherCatV1.15B25,2013-08-10 11:13:00,
2013-08-10 06:18:00,76.0,74.8,30.04,South,182,3.0,5.0,96,0.00,,,0.00,WeatherCatV1.15B25,2013-08-10 11:18:00,
2013-08-10 06:23:00,75.8,74.6,30.04,SSW,201,2.0,5.0,96,0.00,,,0.00,WeatherCatV1.15B25,2013-08-10 11:23:00,
2013-08-10 06:28:00,75.8,74.6,30.04,SSW,200,2.0,4.0,96,0.00,,,0.00,WeatherCatV1.15B25,2013-08-10 11:28:00,
2013-08-10 06:33:00,75.8,74.6,30.05,SSW,192,2.0,4.0,96,0.00,,,0.00,WeatherCatV1.15B25,2013-08-10 11:33:00,
2013-08-10 06:38:00,75.8,74.6,30.04,South,191,3.0,4.0,96,0.00,,,0.00,WeatherCatV1.15B25,2013-08-10 11:38:00,
2013-08-10 06:43:00,75.8,74.6,30.05,South,191,3.0,5.0,96,0.00,,,0.00,WeatherCatV1.15B25,2013-08-10 11:43:00,
2013-08-10 06:48:00,75.8,74.6,30.05,South,191,2.0,4.0,96,0.00,,,0.00,WeatherCatV1.15B25,2013-08-10 11:48:00,
2013-08-10 06:53:00,75.8,74.6,30.05,South,191,4.0,4.0,96,0.00,,,0.00,WeatherCatV1.15B25,2013-08-10 11:53:00,
2013-08-10 06:58:00,75.9,74.7,30.05,South,191,2.0,6.0,96,0.00,,,0.00,WeatherCatV1.15B25,2013-08-10 11:58:00,
2013-08-10 07:03:00,76.0,74.8,30.05,South,191,2.0,4.0,96,0.00,,,0.00,WeatherCatV1.15B25,2013-08-10 12:03:00,
2013-08-10 07:08:00,76.1,74.9,30.05,South,191,1.0,5.0,96,0.00,,,0.00,WeatherCatV1.15B25,2013-08-10 12:08:00,
2013-08-10 07:13:00,76.0,74.8,30.05,South,191,3.0,5.0,96,0.00,,,0.00,WeatherCatV1.15B25,2013-08-10 12:13:00,
2013-08-10 07:18:00,76.1,74.9,30.05,South,191,4.0,4.0,96,0.00,,,0.00,WeatherCatV1.15B25,2013-08-10 12:18:00,
2013-08-10 07:23:00,76.2,75.0,30.05,South,191,4.0,5.0,96,0.00,,,0.00,WeatherCatV1.15B25,2013-08-10 12:23:00,
2013-08-10 07:28:00,76.2,75.0,30.05,South,191,1.0,5.0,96,0.00,,,0.00,WeatherCatV1.15B25,2013-08-10 12:28:00,
2013-08-10 07:33:00,76.4,75.2,30.05,South,191,4.0,6.0,96,0.00,,,0.00,WeatherCatV1.15B25,2013-08-10 12:33:00,
2013-08-10 07:38:00,76.5,75.3,30.05,South,191,3.0,5.0,96,0.00,,,0.00,WeatherCatV1.15B25,2013-08-10 12:38:00,
2013-08-10 07:43:00,76.7,75.5,30.05,South,191,4.0,5.0,96,0.00,,,0.00,WeatherCatV1.15B25,2013-08-10 12:43:00,
2013-08-10 07:48:00,76.9,75.7,30.05,South,191,3.0,6.0,96,0.00,,,0.00,WeatherCatV1.15B25,2013-08-10 12:48:00,
2013-08-10 07:53:00,77.1,75.9,30.06,SSW,192,4.0,4.0,96,0.00,,,0.00,WeatherCatV1.15B25,2013-08-10 12:53:00,
2013-08-10 07:58:00,77.4,76.2,30.06,SSW,192,3.0,6.0,96,0.00,,,0.00,WeatherCatV1.15B25,2013-08-10 12:58:00,
2013-08-10 08:03:00,77.6,76.0,30.06,SSW,192,3.0,5.0,95,0.00,,,0.00,WeatherCatV1.15B25,2013-08-10 13:03:00,
2013-08-10 08:08:00,77.8,76.2,30.06,SSW,192,4.0,5.0,95,0.00,,,0.00,WeatherCatV1.15B25,2013-08-10 13:08:00,
2013-08-10 08:13:00,78.0,76.4,30.06,South,190,3.0,7.0,95,0.00,,,0.00,WeatherCatV1.15B25,2013-08-10 13:13:00,
2013-08-10 08:18:00,78.3,76.7,30.07,South,190,2.0,5.0,95,0.00,,,0.00,WeatherCatV1.15B25,2013-08-10 13:18:00,
2013-08-10 08:23:00,78.5,76.6,30.07,SSW,193,5.0,6.0,94,0.00,,,0.00,WeatherCatV1.15B25,2013-08-10 13:23:00,
2013-08-10 08:28:00,78.5,76.6,30.07,SSW,196,6.0,6.0,94,0.00,,,0.00,WeatherCatV1.15B25,2013-08-10 13:28:00,
2013-08-10 08:33:00,78.6,76.7,30.07,SSW,198,3.0,6.0,94,0.00,,,0.00,WeatherCatV1.15B25,2013-08-10 13:33:00,
2013-08-10 08:38:00,78.7,76.8,30.08,SSW,192,6.0,6.0,94,0.00,,,0.00,WeatherCatV1.15B25,2013-08-10 13:38:00,
2013-08-10 08:43:00,78.8,76.9,30.08,SSW,202,3.0,5.0,94,0.00,,,0.00,WeatherCatV1.15B25,2013-08-10 13:43:00,
2013-08-10 08:48:00,79.2,77.0,30.08,SSW,197,6.0,6.0,93,0.00,,,0.00,WeatherCatV1.15B25,2013-08-10 13:48:00,
2013-08-10 08:53:00,79.6,77.4,30.08,SSW,207,7.0,7.0,93,0.00,,,0.00,WeatherCatV1.15B25,2013-08-10 13:53:00,
2013-08-10 08:58:00,79.9,77.4,30.08,SSW,206,4.0,5.0,92,0.00,,,0.00,WeatherCatV1.15B25,2013-08-10 13:58:00,
2013-08-10 09:03:00,80.0,77.5,30.08,SSW,207,4.0,5.0,92,0.00,,,0.00,WeatherCatV1.15B25,2013-08-10 14:03:00,
2013-08-10 09:08:00,80.3,77.8,30.08,SSW,205,4.0,6.0,92,0.00,,,0.00,WeatherCatV1.15B25,2013-08-10 14:08:00,
2013-08-10 09:13:00,80.8,78.2,30.08,SSW,194,4.0,6.0,92,0.00,,,0.00,WeatherCatV1.15B25,2013-08-10 14:13:00,
2013-08-10 09:18:00,81.1,78.2,30.08,SW,217,5.0,6.0,91,0.00,,,0.00,WeatherCatV1.15B25,2013-08-10 14:18:00,
2013-08-10 09:23:00,81.0,77.8,30.09,SSW,198,5.0,5.0,90,0.00,,,0.00,WeatherCatV1.15B25,2013-08-10 14:23:00,
2013-08-10 09:28:00,81.1,78.2,30.09,SSW,196,3.0,5.0,91,0.00,,,0.00,WeatherCatV1.15B25,2013-08-10 14:28:00,
2013-08-10 09:33:00,81.3,77.7,30.09,SSW,197,3.0,5.0,89,0.00,,,0.00,WeatherCatV1.15B25,2013-08-10 14:33:00,
2013-08-10 09:38:00,81.5,77.9,30.09,SSW,197,5.0,7.0,89,0.00,,,0.00,WeatherCatV1.15B25,2013-08-10 14:38:00,
2013-08-10 09:43:00,81.6,78.0,30.09,SSW,198,3.0,6.0,89,0.00,,,0.00,WeatherCatV1.15B25,2013-08-10 14:43:00,
2013-08-10 09:48:00,81.7,78.1,30.09,SSW,208,3.0,4.0,89,0.00,,,0.00,WeatherCatV1.15B25,2013-08-10 14:48:00,
2013-08-10 09:53:00,81.8,77.9,30.09,SSW,194,4.0,6.0,88,0.00,,,0.00,WeatherCatV1.15B25,2013-08-10 14:53:00,
2013-08-10 09:58:00,81.9,78.0,30.09,SSW,195,2.0,5.0,88,0.00,,,0.00,WeatherCatV1.15B25,2013-08-10 14:58:00,
2013-08-10 10:03:00,82.1,78.2,30.09,SSW,196,2.0,4.0,88,0.00,,,0.00,WeatherCatV1.15B25,2013-08-10 15:03:00,
2013-08-10 10:05:00,82.1,78.2,30.09,SSW,196,2.0,3.0,88,0.00,,,0.00,WeatherCatV1.15B25,2013-08-10 15:05:00,
2013-08-10 10:10:00,82.1,78.2,30.09,SSW,194,3.0,4.0,88,0.00,,,0.00,WeatherCatV1.15B25,2013-08-10 15:10:00,
2013-08-10 10:15:00,82.2,78.3,30.10,SSW,194,2.0,3.0,88,0.00,,,0.00,WeatherCatV1.15B25,2013-08-10 15:15:00,
2013-08-10 10:20:00,82.7,78.4,30.10,SSW,194,1.0,2.0,87,0.00,,,0.00,WeatherCatV1.15B25,2013-08-10 15:20:00,
2013-08-10 10:25:00,83.3,78.7,30.10,SSW,194,0.0,3.0,86,0.00,,,0.00,WeatherCatV1.15B25,2013-08-10 15:25:00,
2013-08-10 10:30:00,83.9,79.6,30.10,SSW,194,3.0,3.0,87,0.00,,,0.00,WeatherCatV1.15B25,2013-08-10 15:30:00,
2013-08-10 10:35:00,84.0,79.0,30.10,SSW,194,4.0,4.0,85,0.00,,,0.00,WeatherCatV1.15B25,2013-08-10 15:35:00,
2013-08-10 10:40:00,84.3,78.9,30.10,South,191,4.0,5.0,84,0.00,,,0.00,WeatherCatV1.15B25,2013-08-10 15:40:00,
2013-08-10 10:45:00,84.7,79.3,30.10,South,190,2.0,5.0,84,0.00,,,0.00,WeatherCatV1.15B25,2013-08-10 15:45:00,
2013-08-10 10:50:00,85.0,79.6,30.10,SSW,192,4.0,6.0,84,0.00,,,0.00,WeatherCatV1.15B25,2013-08-10 15:50:00,
2013-08-10 10:55:00,85.0,79.2,30.10,South,180,5.0,5.0,83,0.00,,,0.00,WeatherCatV1.15B25,2013-08-10 15:55:00,
2013-08-10 11:00:00,85.2,79.4,30.10,South,188,3.0,3.0,83,0.00,,,0.00,WeatherCatV1.15B25,2013-08-10 16:00:00,
2013-08-10 11:05:00,85.5,79.7,30.10,SSW,201,4.0,5.0,83,0.00,,,0.00,WeatherCatV1.15B25,2013-08-10 16:05:00,
2013-08-10 11:10:00,85.6,79.8,30.10,SSW,201,1.0,3.0,83,0.00,,,0.00,WeatherCatV1.15B25,2013-08-10 16:10:00,
2013-08-10 11:15:00,85.9,80.1,30.10,SSW,198,3.0,5.0,83,0.00,,,0.00,WeatherCatV1.15B25,2013-08-10 16:15:00,
2013-08-10 11:20:00,86.1,79.9,30.10,SSW,201,1.0,4.0,82,0.00,,,0.00,WeatherCatV1.15B25,2013-08-10 16:20:00,
2013-08-10 11:25:00,86.4,79.5,30.10,SSW,198,2.0,4.0,80,0.00,,,0.00,WeatherCatV1.15B25,2013-08-10 16:25:00,
2013-08-10 11:30:00,86.6,78.9,30.10,SSW,198,1.0,3.0,78,0.00,,,0.00,WeatherCatV1.15B25,2013-08-10 16:30:00,
2013-08-10 11:35:00,86.6,78.1,30.09,SSW,198,0.0,1.0,76,0.00,,,0.00,WeatherCatV1.15B25,2013-08-10 16:35:00,
2013-08-10 11:40:00,87.0,79.3,30.09,SSW,198,0.0,1.0,78,0.00,,,0.00,WeatherCatV1.15B25,2013-08-10 16:40:00,
2013-08-10 11:45:00,87.2,79.5,30.09,SSW,198,0.0,0.0,78,0.00,,,0.00,WeatherCatV1.15B25,2013-08-10 16:45:00,
2013-08-10 11:50:00,87.4,80.4,30.09,SSW,198,1.0,2.0,80,0.00,,,0.00,WeatherCatV1.15B25,2013-08-10 16:50:00,
2013-08-10 11:55:00,87.6,79.5,30.09,NW,325,2.0,5.0,77,0.00,,,0.00,WeatherCatV1.15B25,2013-08-10 16:55:00,
2013-08-10 12:00:00,87.7,78.8,30.09,NNW,333,1.0,1.0,75,0.00,,,0.00,WeatherCatV1.15B25,2013-08-10 17:00:00,
2013-08-10 12:05:00,88.0,78.6,30.09,NNW,333,0.0,1.0,74,0.00,,,0.00,WeatherCatV1.15B25,2013-08-10 17:05:00,
2013-08-10 12:10:00,88.1,79.6,30.09,North,0,1.0,4.0,76,0.00,,,0.00,WeatherCatV1.15B25,2013-08-10 17:10:00,
2013-08-10 12:15:00,88.0,78.6,30.09,NW,323,0.0,5.0,74,0.00,,,0.00,WeatherCatV1.15B25,2013-08-10 17:15:00,
2013-08-10 12:20:00,88.0,79.5,30.09,NW,323,0.0,0.0,76,0.00,,,0.00,WeatherCatV1.15B25,2013-08-10 17:20:00,
2013-08-10 12:25:00,88.5,79.5,30.08,NE,34,1.0,5.0,75,0.00,,,0.00,WeatherCatV1.15B25,2013-08-10 17:25:00,
2013-08-10 12:30:00,88.6,80.0,30.08,NNW,332,2.0,2.0,76,0.00,,,0.00,WeatherCatV1.15B25,2013-08-10 17:30:00,
2013-08-10 12:35:00,88.7,78.5,30.08,West,275,1.0,4.0,72,0.00,,,0.00,WeatherCatV1.15B25,2013-08-10 17:35:00,
2013-08-10 12:40:00,88.8,81.0,30.08,NW,321,4.0,6.0,78,0.00,,,0.00,WeatherCatV1.15B25,2013-08-10 17:40:00,
2013-08-10 12:45:00,88.5,79.5,30.08,NNE,27,7.0,7.0,75,0.00,,,0.00,WeatherCatV1.15B25,2013-08-10 17:45:00,
2013-08-10 12:50:00,87.5,79.0,30.08,North,0,3.0,6.0,76,0.00,,,0.00,WeatherCatV1.15B25,2013-08-10 17:50:00,
2013-08-10 12:55:00,86.5,79.2,30.08,NNW,329,4.0,8.0,79,0.00,,,0.00,WeatherCatV1.15B25,2013-08-10 17:55:00,
2013-08-10 13:00:00,85.6,79.1,30.08,North,0,4.0,9.0,81,0.00,,,0.00,WeatherCatV1.15B25,2013-08-10 18:00:00,
2013-08-10 13:05:00,85.0,78.5,30.08,NNW,342,6.0,7.0,81,0.00,,,0.00,WeatherCatV1.15B25,2013-08-10 18:05:00,
2013-08-10 13:10:00,84.7,78.2,30.08,NNW,341,7.0,9.0,81,0.00,,,0.00,WeatherCatV1.15B25,2013-08-10 18:10:00,
2013-08-10 13:15:00,84.3,77.4,30.08,North,5,10.0,15.0,80,0.00,,,0.00,WeatherCatV1.15B25,2013-08-10 18:15:00,
2013-08-10 13:20:00,81.9,75.5,30.07,NE,44,10.0,13.0,81,0.00,,,0.00,WeatherCatV1.15B25,2013-08-10 18:20:00,
2013-08-10 13:25:00,80.7,75.4,30.07,North,349,8.0,11.0,84,0.00,,,0.00,WeatherCatV1.15B25,2013-08-10 18:25:00,
2013-08-10 13:30:00,80.4,75.5,30.08,NNE,32,4.0,11.0,85,0.00,,,0.00,WeatherCatV1.15B25,2013-08-10 18:30:00,
2013-08-10 13:35:00,80.4,75.8,30.08,NE,36,9.0,11.0,86,0.00,,,0.00,WeatherCatV1.15B25,2013-08-10 18:35:00,
2013-08-10 13:40:00,81.1,77.5,30.08,NE,46,7.0,10.0,89,0.00,,,0.00,WeatherCatV1.15B25,2013-08-10 18:40:00,
2013-08-10 13:45:00,81.3,76.3,30.08,NNE,28,4.0,8.0,85,0.00,,,0.00,WeatherCatV1.15B25,2013-08-10 18:45:00,
2013-08-10 13:50:00,81.4,76.1,30.08,NNE,21,9.0,11.0,84,0.00,,,0.00,WeatherCatV1.15B25,2013-08-10 18:50:00,
2013-08-10 13:55:00,82.0,77.0,30.08,NE,49,6.0,11.0,85,0.00,,,0.00,WeatherCatV1.15B25,2013-08-10 18:55:00,
2013-08-10 14:00:00,82.2,76.9,30.07,NE,55,8.0,11.0,84,0.00,,,0.00,WeatherCatV1.15B25,2013-08-10 19:00:00,
2013-08-10 14:05:00,82.5,77.2,30.07,NE,53,6.0,14.0,84,0.00,,,0.00,WeatherCatV1.15B25,2013-08-10 19:05:00,
2013-08-10 14:10:00,82.8,77.8,30.06,NE,42,8.0,9.0,85,0.00,,,0.00,WeatherCatV1.15B25,2013-08-10 19:10:00,
2013-08-10 14:15:00,83.2,77.5,30.06,NNE,21,8.0,13.0,83,0.00,,,0.00,WeatherCatV1.15B25,2013-08-10 19:15:00,
2013-08-10 14:20:00,83.3,77.2,30.06,North,9,9.0,9.0,82,0.00,,,0.00,WeatherCatV1.15B25,2013-08-10 19:20:00,
2013-08-10 14:25:00,83.5,77.0,30.05,North,11,8.0,11.0,81,0.00,,,0.00,WeatherCatV1.15B25,2013-08-10 19:25:00,
2013-08-10 14:30:00,83.6,76.8,30.05,NE,34,10.0,10.0,80,0.00,,,0.00,WeatherCatV1.15B25,2013-08-10 19:30:00,
2013-08-10 14:35:00,83.6,76.4,30.05,NNE,27,8.0,10.0,79,0.00,,,0.00,WeatherCatV1.15B25,2013-08-10 19:35:00,
2013-08-10 14:40:00,83.5,77.0,30.04,NE,37,6.0,9.0,81,0.00,,,0.00,WeatherCatV1.15B25,2013-08-10 19:40:00,
2013-08-10 14:45:00,83.8,76.6,30.04,NNE,29,6.0,9.0,79,0.00,,,0.00,WeatherCatV1.15B25,2013-08-10 19:45:00,
2013-08-10 14:50:00,84.3,77.1,30.04,NE,36,5.0,7.0,79,0.00,,,0.00,WeatherCatV1.15B25,2013-08-10 19:50:00,
2013-08-10 14:55:00,84.8,78.3,30.04,NE,35,9.0,9.0,81,0.00,,,0.00,WeatherCatV1.15B25,2013-08-10 19:55:00,
2013-08-10 15:00:00,85.2,77.9,30.04,NNE,12,10.0,10.0,79,0.00,,,0.00,WeatherCatV1.15B25,2013-08-10 20:00:00,
2013-08-10 15:05:00,85.6,78.3,30.04,NE,44,5.0,9.0,79,0.00,,,0.00,WeatherCatV1.15B25,2013-08-10 20:05:00,
2013-08-10 15:10:00,85.7,77.2,30.03,NNE,31,5.0,9.0,76,0.00,,,0.00,WeatherCatV1.15B25,2013-08-10 20:10:00,
2013-08-10 15:15:00,85.9,78.2,30.03,NE,54,4.0,9.0,78,0.00,,,0.00,WeatherCatV1.15B25,2013-08-10 20:15:00,
2013-08-10 15:20:00,86.0,78.3,30.03,North,11,4.0,6.0,78,0.00,,,0.00,WeatherCatV1.15B25,2013-08-10 20:20:00,
2013-08-10 15:25:00,86.1,78.0,30.03,NE,46,3.0,8.0,77,0.00,,,0.00,WeatherCatV1.15B25,2013-08-10 20:25:00,
2013-08-10 15:30:00,86.2,78.5,30.02,ENE,64,5.0,8.0,78,0.00,,,0.00,WeatherCatV1.15B25,2013-08-10 20:30:00,
2013-08-10 15:35:00,86.4,78.3,30.02,East,84,8.0,9.0,77,0.00,,,0.00,WeatherCatV1.15B25,2013-08-10 20:35:00,
2013-08-10 15:40:00,86.2,76.9,30.02,NE,37,5.0,9.0,74,0.00,,,0.00,WeatherCatV1.15B25,2013-08-10 20:40:00,
2013-08-10 15:45:00,85.9,77.8,30.01,NNE,18,6.0,9.0,77,0.00,,,0.00,WeatherCatV1.15B25,2013-08-10 20:45:00,
2013-08-10 15:50:00,85.9,78.6,30.01,NE,46,6.0,6.0,79,0.00,,,0.00,WeatherCatV1.15B25,2013-08-10 20:50:00,
2013-08-10 15:55:00,86.0,77.9,30.01,NE,44,5.0,7.0,77,0.00,,,0.00,WeatherCatV1.15B25,2013-08-10 20:55:00,
2013-08-10 16:00:00,86.2,77.7,30.01,ENE,68,7.0,7.0,76,0.00,,,0.00,WeatherCatV1.15B25,2013-08-10 21:00:00,
2013-08-10 16:05:00,86.1,77.6,30.00,ENE,62,4.0,7.0,76,0.00,,,0.00,WeatherCatV1.15B25,2013-08-10 21:05:00,
2013-08-10 16:10:00,86.1,77.6,30.01,NE,46,4.0,6.0,76,0.00,,,0.00,WeatherCatV1.15B25,2013-08-10 21:10:00,
2013-08-10 16:15:00,86.4,77.5,30.01,NE,52,4.0,6.0,75,0.00,,,0.00,WeatherCatV1.15B25,2013-08-10 21:15:00,
2013-08-10 16:20:00,86.6,77.3,30.01,ENE,63,2.0,6.0,74,0.00,,,0.00,WeatherCatV1.15B25,2013-08-10 21:20:00,
2013-08-10 16:25:00,86.8,77.1,30.01,ESE,105,1.0,7.0,73,0.00,,,0.00,WeatherCatV1.15B25,2013-08-10 21:25:00,
2013-08-10 16:30:00,87.0,77.7,30.01,East,92,5.0,6.0,74,0.00,,,0.00,WeatherCatV1.15B25,2013-08-10 21:30:00,
2013-08-10 16:35:00,87.1,78.2,30.01,East,101,3.0,5.0,75,0.00,,,0.00,WeatherCatV1.15B25,2013-08-10 21:35:00,
2013-08-10 16:40:00,87.2,77.5,30.02,NE,36,5.0,7.0,73,0.00,,,0.00,WeatherCatV1.15B25,2013-08-10 21:40:00,
2013-08-10 16:45:00,87.3,78.8,30.02,NE,46,4.0,5.0,76,0.00,,,0.00,WeatherCatV1.15B25,2013-08-10 21:45:00,
2013-08-10 16:50:00,87.3,78.0,30.02,NE,53,5.0,7.0,74,0.00,,,0.00,WeatherCatV1.15B25,2013-08-10 21:50:00,
2013-08-10 16:55:00,87.3,78.8,30.02,NE,40,5.0,6.0,76,0.00,,,0.00,WeatherCatV1.15B25,2013-08-10 21:55:00,
2013-08-10 17:00:00,87.4,78.9,30.02,ENE,76,7.0,7.0,76,0.00,,,0.00,WeatherCatV1.15B25,2013-08-10 22:00:00,
2013-08-10 17:05:00,87.4,78.1,30.02,East,101,5.0,7.0,74,0.00,,,0.00,WeatherCatV1.15B25,2013-08-10 22:05:00,
2013-08-10 17:10:00,87.3,78.8,30.02,ENE,72,4.0,5.0,76,0.00,,,0.00,WeatherCatV1.15B25,2013-08-10 22:10:00,
2013-08-10 17:15:00,87.2,77.9,30.02,East,101,5.0,6.0,74,0.00,,,0.00,WeatherCatV1.15B25,2013-08-10 22:15:00,
2013-08-10 17:20:00,86.9,78.0,30.02,East,82,6.0,6.0,75,0.00,,,0.00,WeatherCatV1.15B25,2013-08-10 22:20:00,
2013-08-10 17:25:00,86.7,77.8,30.02,East,93,6.0,7.0,75,0.00,,,0.00,WeatherCatV1.15B25,2013-08-10 22:25:00,
2013-08-10 17:30:00,86.6,77.7,30.02,NE,47,2.0,5.0,75,0.00,,,0.00,WeatherCatV1.15B25,2013-08-10 22:30:00,
2013-08-10 17:35:00,86.5,78.0,30.02,NE,46,4.0,4.0,76,0.00,,,0.00,WeatherCatV1.15B25,2013-08-10 22:35:00,
2013-08-10 17:40:00,86.5,78.0,30.01,ENE,76,4.0,6.0,76,0.00,,,0.00,WeatherCatV1.15B25,2013-08-10 22:40:00,
2013-08-10 17:45:00,86.5,78.4,30.01,East,84,1.0,3.0,77,0.00,,,0.00,WeatherCatV1.15B25,2013-08-10 22:45:00,
2013-08-10 17:50:00,86.6,78.1,30.01,East,79,3.0,6.0,76,0.00,,,0.00,WeatherCatV1.15B25,2013-08-10 22:50:00,
2013-08-10 17:55:00,86.5,78.0,30.01,ENE,71,2.0,7.0,76,0.00,,,0.00,WeatherCatV1.15B25,2013-08-10 22:55:00,
2013-08-10 18:00:00,86.3,77.8,30.01,ENE,66,4.0,4.0,76,0.00,,,0.00,WeatherCatV1.15B25,2013-08-10 23:00:00,
2013-08-10 18:05:00,86.2,78.1,30.01,NE,42,2.0,3.0,77,0.00,,,0.00,WeatherCatV1.15B25,2013-08-10 23:05:00,
2013-08-10 18:10:00,85.9,77.8,30.01,ENE,57,1.0,2.0,77,0.00,,,0.00,WeatherCatV1.15B25,2013-08-10 23:10:00,
2013-08-10 18:15:00,85.9,78.2,30.01,NE,56,2.0,4.0,78,0.00,,,0.00,WeatherCatV1.15B25,2013-08-10 23:15:00,
2013-08-10 18:20:00,85.7,78.4,30.01,NE,46,0.0,2.0,79,0.00,,,0.00,WeatherCatV1.15B25,2013-08-10 23:20:00,
2013-08-10 18:25:00,85.7,78.4,30.00,NE,47,3.0,3.0,79,0.00,,,0.00,WeatherCatV1.15B25,2013-08-10 23:25:00,
2013-08-10 18:30:00,85.6,78.3,30.01,ENE,75,1.0,5.0,79,0.00,,,0.00,WeatherCatV1.15B25,2013-08-10 23:30:00,
2013-08-10 18:35:00,85.6,78.7,30.01,ENE,75,1.0,4.0,80,0.00,,,0.00,WeatherCatV1.15B25,2013-08-10 23:35:00,
2013-08-10 18:40:00,85.5,78.6,30.01,ENE,62,1.0,3.0,80,0.00,,,0.00,WeatherCatV1.15B25,2013-08-10 23:40:00,
2013-08-10 18:45:00,85.3,78.4,30.01,ENE,70,0.0,4.0,80,0.00,,,0.00,WeatherCatV1.15B25,2013-08-10 23:45:00,
2013-08-10 18:50:00,85.3,78.8,30.01,ENE,76,0.0,4.0,81,0.00,,,0.00,WeatherCatV1.15B25,2013-08-10 23:50:00,
2013-08-10 18:55:00,85.2,78.7,30.01,ENE,76,0.0,3.0,81,0.00,,,0.00,WeatherCatV1.15B25,2013-08-10 23:55:00,
2013-08-10 19:00:00,85.2,78.7,30.01,ENE,76,1.0,2.0,81,0.00,,,0.00,WeatherCatV1.15B25,2013-08-11 00:00:00,
2013-08-10 19:05:00,85.2,78.7,30.01,ENE,76,1.0,3.0,81,0.00,,,0.00,WeatherCatV1.15B25,2013-08-11 00:05:00,
2013-08-10 19:10:00,85.1,79.0,30.02,ENE,76,0.0,4.0,82,0.00,,,0.00,WeatherCatV1.15B25,2013-08-11 00:10:00,
2013-08-10 19:15:00,84.8,79.0,30.02,ENE,76,0.0,2.0,83,0.00,,,0.00,WeatherCatV1.15B25,2013-08-11 00:15:00,
2013-08-10 19:20:00,84.6,78.8,30.02,ENE,76,1.0,1.0,83,0.00,,,0.00,WeatherCatV1.15B25,2013-08-11 00:20:00,
2013-08-10 19:25:00,84.4,78.7,30.03,ENE,76,1.0,2.0,83,0.00,,,0.00,WeatherCatV1.15B25,2013-08-11 00:25:00,
2013-08-10 19:30:00,84.2,78.5,30.03,ENE,76,0.0,1.0,83,0.00,,,0.00,WeatherCatV1.15B25,2013-08-11 00:30:00,
2013-08-10 19:35:00,84.0,78.3,30.03,ENE,76,2.0,3.0,83,0.00,,,0.00,WeatherCatV1.15B25,2013-08-11 00:35:00,
2013-08-10 19:40:00,83.9,78.2,30.03,ENE,76,0.0,3.0,83,0.00,,,0.00,WeatherCatV1.15B25,2013-08-11 00:40:00,
2013-08-10 19:45:00,83.8,78.4,30.03,ENE,76,2.0,3.0,84,0.00,,,0.00,WeatherCatV1.15B25,2013-08-11 00:45:00,
2013-08-10 19:50:00,83.7,78.3,30.03,ENE,76,3.0,4.0,84,0.00,,,0.00,WeatherCatV1.15B25,2013-08-11 00:50:00,
2013-08-10 19:55:00,83.6,78.6,30.03,ENE,76,2.0,3.0,85,0.00,,,0.00,WeatherCatV1.15B25,2013-08-11 00:55:00,
2013-08-10 20:00:00,83.5,78.5,30.03,ENE,76,2.0,2.0,85,0.00,,,0.00,WeatherCatV1.15B25,2013-08-11 01:00:00,
2013-08-10 20:05:00,83.4,78.4,30.03,ENE,76,0.0,1.0,85,0.00,,,0.00,WeatherCatV1.15B25,2013-08-11 01:05:00,
2013-08-10 20:10:00,83.3,78.3,30.03,ENE,76,0.0,1.0,85,0.00,,,0.00,WeatherCatV1.15B25,2013-08-11 01:10:00,
2013-08-10 20:15:00,83.0,78.4,30.03,ENE,76,0.0,1.0,86,0.00,,,0.00,WeatherCatV1.15B25,2013-08-11 01:15:00,
2013-08-10 20:20:00,82.7,78.1,30.03,ENE,76,0.0,0.0,86,0.00,,,0.00,WeatherCatV1.15B25,2013-08-11 01:20:00,
2013-08-10 20:25:00,82.5,78.2,30.04,ENE,76,0.0,1.0,87,0.00,,,0.00,WeatherCatV1.15B25,2013-08-11 01:25:00,
2013-08-10 20:30:00,82.2,78.3,30.04,ENE,76,1.0,2.0,88,0.00,,,0.00,WeatherCatV1.15B25,2013-08-11 01:30:00,
2013-08-10 20:35:00,81.9,78.0,30.03,ENE,76,1.0,1.0,88,0.00,,,0.00,WeatherCatV1.15B25,2013-08-11 01:35:00,
2013-08-10 20:40:00,81.6,77.7,30.04,ENE,76,0.0,0.0,88,0.00,,,0.00,WeatherCatV1.15B25,2013-08-11 01:40:00,
2013-08-10 20:45:00,81.4,77.5,30.04,ENE,76,0.0,1.0,88,0.00,,,0.00,WeatherCatV1.15B25,2013-08-11 01:45:00,
2013-08-10 20:50:00,81.4,77.5,30.04,ENE,76,0.0,0.0,88,0.00,,,0.00,WeatherCatV1.15B25,2013-08-11 01:50:00,
2013-08-10 20:55:00,81.2,77.3,30.05,ENE,76,0.0,0.0,88,0.00,,,0.00,WeatherCatV1.15B25,2013-08-11 01:55:00,
2013-08-10 21:00:00,81.0,77.4,30.05,ENE,76,0.0,0.0,89,0.00,,,0.00,WeatherCatV1.15B25,2013-08-11 02:00:00,
2013-08-10 21:05:00,80.8,77.2,30.05,ENE,76,0.0,1.0,89,0.00,,,0.00,WeatherCatV1.15B25,2013-08-11 02:05:00,
2013-08-10 21:10:00,80.4,76.8,30.06,ENE,76,0.0,0.0,89,0.00,,,0.00,WeatherCatV1.15B25,2013-08-11 02:10:00,
2013-08-10 21:15:00,80.1,76.9,30.06,ENE,76,1.0,1.0,90,0.00,,,0.00,WeatherCatV1.15B25,2013-08-11 02:15:00,
2013-08-10 21:20:00,79.8,76.9,30.06,ENE,76,1.0,2.0,91,0.00,,,0.00,WeatherCatV1.15B25,2013-08-11 02:20:00,
2013-08-10 21:25:00,79.7,77.2,30.06,ENE,76,1.0,1.0,92,0.00,,,0.00,WeatherCatV1.15B25,2013-08-11 02:25:00,
2013-08-10 21:30:00,79.6,77.1,30.07,ENE,76,0.0,1.0,92,0.00,,,0.00,WeatherCatV1.15B25,2013-08-11 02:30:00,
2013-08-10 21:35:00,79.7,77.2,30.07,ENE,76,1.0,2.0,92,0.00,,,0.00,WeatherCatV1.15B25,2013-08-11 02:35:00,
2013-08-10 21:40:00,79.8,77.3,30.07,ENE,76,2.0,3.0,92,0.00,,,0.00,WeatherCatV1.15B25,2013-08-11 02:40:00,
2013-08-10 21:45:00,79.9,77.4,30.07,ENE,76,0.0,2.0,92,0.00,,,0.00,WeatherCatV1.15B25,2013-08-11 02:45:00,
2013-08-10 21:50:00,80.0,77.5,30.07,ENE,76,0.0,1.0,92,0.00,,,0.00,WeatherCatV1.15B25,2013-08-11 02:50:00,
2013-08-10 21:55:00,80.1,77.2,30.07,ENE,76,0.0,1.0,91,0.00,,,0.00,WeatherCatV1.15B25,2013-08-11 02:55:00,
2013-08-10 22:00:00,80.1,77.2,30.06,ENE,76,0.0,1.0,91,0.00,,,0.00,WeatherCatV1.15B25,2013-08-11 03:00:00,
2013-08-10 22:05:00,80.0,77.1,30.07,ENE,76,1.0,2.0,91,0.00,,,0.00,WeatherCatV1.15B25,2013-08-11 03:05:00,
2013-08-10 22:10:00,80.0,77.1,30.07,ENE,76,1.0,2.0,91,0.00,,,0.00,WeatherCatV1.15B25,2013-08-11 03:10:00,
2013-08-10 22:15:00,80.0,77.1,30.07,ENE,76,0.0,2.0,91,0.00,,,0.00,WeatherCatV1.15B25,2013-08-11 03:15:00,
2013-08-10 22:20:00,79.9,77.0,30.07,ENE,76,0.0,1.0,91,0.00,,,0.00,WeatherCatV1.15B25,2013-08-11 03:20:00,
2013-08-10 22:25:00,79.8,76.9,30.07,ENE,76,0.0,1.0,91,0.00,,,0.00,WeatherCatV1.15B25,2013-08-11 03:25:00,
2013-08-10 22:30:00,79.8,76.9,30.07,ENE,76,1.0,1.0,91,0.00,,,0.00,WeatherCatV1.15B25,2013-08-11 03:30:00,
2013-08-10 22:35:00,79.7,76.8,30.07,ENE,76,0.0,1.0,91,0.00,,,0.00,WeatherCatV1.15B25,2013-08-11 03:35:00,
2013-08-10 22:40:00,79.6,76.7,30.07,ENE,76,2.0,2.0,91,0.00,,,0.00,WeatherCatV1.15B25,2013-08-11 03:40:00,
2013-08-10 22:45:00,79.6,76.7,30.07,ENE,76,1.0,2.0,91,0.00,,,0.00,WeatherCatV1.15B25,2013-08-11 03:45:00,
2013-08-10 22:50:00,79.5,76.6,30.07,ENE,76,1.0,1.0,91,0.00,,,0.00,WeatherCatV1.15B25,2013-08-11 03:50:00,
2013-08-10 22:55:00,79.4,76.5,30.07,ENE,76,0.0,0.0,91,0.00,,,0.00,WeatherCatV1.15B25,2013-08-11 03:55:00,
2013-08-10 23:00:00,79.4,76.5,30.07,ENE,76,0.0,1.0,91,0.00,,,0.00,WeatherCatV1.15B25,2013-08-11 04:00:00,
2013-08-10 23:01:00,79.4,76.5,30.07,ENE,76,0.0,1.0,91,0.00,,,0.00,WeatherCatV1.15B25,2013-08-11 04:01:00,
2013-08-10 23:06:00,79.4,76.5,30.07,ENE,76,0.0,0.0,91,0.00,,,0.00,WeatherCatV1.15B25,2013-08-11 04:06:00,
2013-08-10 23:11:00,79.2,76.3,30.07,ENE,76,1.0,2.0,91,0.00,,,0.00,WeatherCatV1.15B25,2013-08-11 04:11:00,
2013-08-10 23:16:00,78.9,76.0,30.07,ENE,76,0.0,1.0,91,0.00,,,0.00,WeatherCatV1.15B25,2013-08-11 04:16:00,
2013-08-10 23:21:00,78.6,76.1,30.07,ENE,76,0.0,1.0,92,0.00,,,0.00,WeatherCatV1.15B25,2013-08-11 04:21:00,
2013-08-10 23:26:00,78.6,76.4,30.06,ENE,76,0.0,1.0,93,0.00,,,0.00,WeatherCatV1.15B25,2013-08-11 04:26:00,
2013-08-10 23:31:00,78.7,76.5,30.06,ENE,76,1.0,2.0,93,0.00,,,0.00,WeatherCatV1.15B25,2013-08-11 04:31:00,
2013-08-10 23:36:00,78.8,76.3,30.06,ENE,76,2.0,4.0,92,0.00,,,0.00,WeatherCatV1.15B25,2013-08-11 04:36:00,
2013-08-10 23:41:00,78.9,76.4,30.06,ENE,76,1.0,3.0,92,0.00,,,0.00,WeatherCatV1.15B25,2013-08-11 04:41:00,
2013-08-10 23:46:00,78.9,76.4,30.06,ENE,76,0.0,1.0,92,0.00,,,0.00,WeatherCatV1.15B25,2013-08-11 04:46:00,
2013-08-10 23:51:00,78.9,76.4,30.06,ENE,76,1.0,2.0,92,0.00,,,0.00,WeatherCatV1.15B25,2013-08-11 04:51:00,
2013-08-10 23:56:00,78.9,76.4,30.06,ENE,76,0.0,1.0,92,0.00,,,0.00,WeatherCatV1.15B25,2013-08-11 04:56:00,